Time;durP1;ratioP1;P1;durP2;ratioP2;P2;SDS_P1;SDS_P2;PMS_P1;PMS_P2;Temp;Humidity;BMP_temperature;BMP_pressure;BME280_temperature;BME280_humidity;BME280_pressure;Samples;Min_cycle;Max_cycle;Signal;HPM_P1;HPM_P2
2022/06/05 00:01:31;;;;;;;;;44.00;36.33;;;;;;;;5038648;28;45237;-65
2022/06/05 00:04:14;;;;;;;;;38.67;35.67;;;;;;;;5037643;28;45742;-65
2022/06/05 00:06:48;;;;;;;;;31.00;31.00;;;;;;;;5046380;28;46383;-65
2022/06/05 00:09:35;;;;;;;;;41.00;34.67;;;;;;;;5037956;28;45396;-65
2022/06/05 00:12:03;;;;;;;;;43.33;36.00;;;;;;;;5037798;28;45513;-66
2022/06/05 00:14:30;;;;;;;;;44.33;35.67;;;;;;;;5038644;28;45461;-66
2022/06/05 00:16:55;;;;;;;;;41.00;35.67;;;;;;;;5038002;28;46304;-66
2022/06/05 00:19:21;;;;;;;;;47.67;39.00;;;;;;;;5049089;28;45475;-65
2022/06/05 00:21:48;;;;;;;;;43.33;34.67;;;;;;;;5038352;28;45339;-66
2022/06/05 00:24:13;;;;;;;;;50.33;39.33;;;;;;;;5038269;28;45548;-65
2022/06/05 00:26:49;;;;;;;;;47.00;36.00;;;;;;;;5037989;28;45594;-66
2022/06/05 00:29:29;;;;;;;;;47.33;40.33;;;;;;;;5038368;28;45732;-65
2022/06/05 00:31:54;;;;;;;;;44.67;37.00;;;;;;;;5038197;28;45496;-65
2022/06/05 00:34:19;;;;;;;;;46.67;38.33;;;;;;;;5038401;28;45505;-65
2022/06/05 00:36:57;;;;;;;;;43.33;37.33;;;;;;;;5038042;28;46420;-65
2022/06/05 00:39:41;;;;;;;;;42.00;35.00;;;;;;;;5036991;28;45329;-66
2022/06/05 00:42:09;;;;;;;;;38.67;34.00;;;;;;;;5023271;28;45380;-66
2022/06/05 00:44:39;;;;;;;;;39.67;34.67;;;;;;;;5027333;28;45369;-66
2022/06/05 00:47:09;;;;;;;;;45.67;36.33;;;;;;;;5037336;28;47890;-66
2022/06/05 00:49:37;;;;;;;;;36.67;32.67;;;;;;;;5038311;28;45304;-65
2022/06/05 00:52:03;;;;;;;;;44.00;35.00;;;;;;;;5048991;28;45519;-66
2022/06/05 00:54:29;;;;;;;;;50.67;39.33;;;;;;;;5058539;28;45516;-65
2022/06/05 00:56:54;;;;;;;;;40.00;36.00;;;;;;;;5057822;28;45561;-66
2022/06/05 00:59:21;;;;;;;;;43.33;36.67;;;;;;;;5057813;28;45432;-66
2022/06/05 01:01:48;;;;;;;;;45.67;35.33;;;;;;;;5049234;28;45467;-66
2022/06/05 01:04:13;;;;;;;;;36.50;34.50;;;;;;;;5043274;28;45293;-67
2022/06/05 01:06:39;;;;;;;;;46.33;37.67;;;;;;;;5047451;28;46177;-66
2022/06/05 01:09:05;;;;;;;;;41.33;35.00;;;;;;;;5057718;28;45720;-66
2022/06/05 01:11:52;;;;;;;;;43.00;36.33;;;;;;;;5057448;28;45396;-66
2022/06/05 01:14:17;;;;;;;;;39.67;33.67;;;;;;;;5056301;28;45551;-66
2022/06/05 01:16:59;;;;;;;;;43.33;35.00;;;;;;;;5054353;28;45456;-66
2022/06/05 01:19:25;;;;;;;;;39.33;34.33;;;;;;;;5026907;28;46033;-66
2022/06/05 01:22:02;;;;;;;;;38.67;31.67;;;;;;;;5043370;28;45425;-66
2022/06/05 01:24:46;;;;;;;;;42.67;34.67;;;;;;;;5048592;28;45452;-67
2022/06/05 01:27:14;;;;;;;;;46.00;34.67;;;;;;;;5037003;28;46686;-66
2022/06/05 01:29:52;;;;;;;;;41.67;37.00;;;;;;;;5036213;28;45211;-66
2022/06/05 01:32:26;;;;;;;;;40.33;35.33;;;;;;;;5047341;28;45321;-67
2022/06/05 01:34:54;;;;;;;;;41.00;33.33;;;;;;;;5049099;28;45356;-66
2022/06/05 01:37:22;;;;;;;;;43.33;35.33;;;;;;;;5037308;28;45416;-66
2022/06/05 01:39:51;;;;;;;;;49.00;36.67;;;;;;;;5038278;28;45438;-67
2022/06/05 01:42:38;;;;;;;;;;;;;;;;;;;;;
2022/06/05 01:45:08;;;;;;;;;42.33;36.00;;;;;;;;5036849;28;65366;-66
2022/06/05 01:47:35;;;;;;;;;40.33;34.33;;;;;;;;5037187;28;46768;-66
2022/06/05 01:50:07;;;;;;;;;39.00;31.33;;;;;;;;5044778;28;45418;-66
2022/06/05 01:52:38;;;;;;;;;40.00;35.00;;;;;;;;5057150;28;45543;-66
2022/06/05 01:55:13;;;;;;;;;41.00;36.33;;;;;;;;5040586;28;45695;-67
2022/06/05 01:57:38;;;;;;;;;34.33;33.00;;;;;;;;5036891;28;45670;-66
2022/06/05 02:00:09;;;;;;;;;43.67;35.33;;;;;;;;5037932;28;45275;-65
2022/06/05 02:02:57;;;;;;;;;46.33;39.00;;;;;;;;5053034;28;45171;-65
2022/06/05 02:05:28;;;;;;;;;44.00;36.00;;;;;;;;5037023;28;45361;-65
2022/06/05 02:07:59;;;;;;;;;42.67;37.00;;;;;;;;5043743;28;46254;-66
2022/06/05 02:10:28;;;;;;;;;39.33;34.67;;;;;;;;5045408;28;45368;-66
2022/06/05 02:12:54;;;;;;;;;43.67;37.33;;;;;;;;5053805;28;45721;-66
2022/06/05 02:15:19;;;;;;;;;50.00;40.33;;;;;;;;5055898;28;45347;-65
2022/06/05 02:17:45;;;;;;;;;47.67;37.00;;;;;;;;5056238;28;46389;-65
2022/06/05 02:20:10;;;;;;;;;51.00;41.00;;;;;;;;5052623;28;45206;-65
2022/06/05 02:22:37;;;;;;;;;47.67;38.67;;;;;;;;5056644;28;45278;-65
2022/06/05 02:25:05;;;;;;;;;49.33;41.67;;;;;;;;5055053;28;45269;-66
2022/06/05 02:27:30;;;;;;;;;42.67;36.67;;;;;;;;5056195;28;46065;-66
2022/06/05 02:29:56;;;;;;;;;50.67;41.00;;;;;;;;5039809;28;46520;-66
2022/06/05 02:32:40;;;;;;;;;44.00;36.67;;;;;;;;5036872;28;45673;-66
2022/06/05 02:35:24;;;;;;;;;52.00;41.33;;;;;;;;5037220;28;45240;-66
2022/06/05 02:38:12;;;;;;;;;49.00;39.33;;;;;;;;5044652;28;45343;-66
2022/06/05 02:40:43;;;;;;;;;44.67;36.67;;;;;;;;5049440;28;45388;-66
2022/06/05 02:43:19;;;;;;;;;45.67;37.00;;;;;;;;5056373;28;45498;-66
2022/06/05 02:46:04;;;;;;;;;49.67;39.33;;;;;;;;5056506;28;45261;-66
2022/06/05 02:48:48;;;;;;;;;47.67;40.67;;;;;;;;5054333;28;46411;-67
2022/06/05 02:51:20;;;;;;;;;50.67;38.67;;;;;;;;5055089;28;45480;-66
2022/06/05 02:53:45;;;;;;;;;49.00;40.33;;;;;;;;5016651;28;45305;-66
2022/06/05 02:56:11;;;;;;;;;51.67;40.67;;;;;;;;5034362;28;45247;-66
2022/06/05 02:58:36;;;;;;;;;51.00;42.33;;;;;;;;5038821;28;46193;-66
2022/06/05 03:03:45;;;;;;;;;52.33;42.33;;;;;;;;5030837;28;45594;-66
2022/06/05 03:06:10;;;;;;;;;54.00;42.67;;;;;;;;5037517;28;45406;-67
2022/06/05 03:08:36;;;;;;;;;46.67;38.67;;;;;;;;5039708;28;45550;-66
2022/06/05 03:11:01;;;;;;;;;51.00;39.67;;;;;;;;5039674;28;45382;-66
2022/06/05 03:13:27;;;;;;;;;49.00;39.67;;;;;;;;5055492;28;45316;-66
2022/06/05 03:15:54;;;;;;;;;48.00;39.67;;;;;;;;5057943;28;45317;-66
2022/06/05 03:18:20;;;;;;;;;52.33;42.00;;;;;;;;5052898;28;46476;-66
2022/06/05 03:20:45;;;;;;;;;49.67;42.00;;;;;;;;5043802;28;45546;-66
2022/06/05 03:23:11;;;;;;;;;49.67;42.00;;;;;;;;5057364;28;45370;-66
2022/06/05 03:25:39;;;;;;;;;52.00;42.67;;;;;;;;5059740;28;45439;-66
2022/06/05 03:28:06;;;;;;;;;50.67;42.67;;;;;;;;5056852;28;47074;-65
2022/06/05 03:30:32;;;;;;;;;44.33;36.67;;;;;;;;5048515;28;45374;-66
2022/06/05 03:32:57;;;;;;;;;51.33;41.67;;;;;;;;5059150;28;45331;-66
2022/06/05 03:35:22;;;;;;;;;50.33;39.00;;;;;;;;5058837;28;45513;-65
2022/06/05 03:37:48;;;;;;;;;46.00;36.67;;;;;;;;5057996;28;45733;-66
2022/06/05 03:40:16;;;;;;;;;49.33;39.67;;;;;;;;5045295;28;45350;-66
2022/06/05 03:42:42;;;;;;;;;48.33;38.67;;;;;;;;5058764;28;45329;-67
2022/06/05 03:45:15;;;;;;;;;48.67;41.00;;;;;;;;5045814;28;45490;-66
2022/06/05 03:47:41;;;;;;;;;51.67;42.67;;;;;;;;5050937;28;45535;-66
2022/06/05 03:50:06;;;;;;;;;52.67;41.33;;;;;;;;5059015;28;45507;-66
2022/06/05 03:52:31;;;;;;;;;49.33;39.67;;;;;;;;5058782;28;45221;-66
2022/06/05 03:54:57;;;;;;;;;50.33;41.33;;;;;;;;5050572;28;45436;-67
2022/06/05 03:57:22;;;;;;;;;50.67;41.33;;;;;;;;5038482;28;45431;-66
2022/06/05 03:59:48;;;;;;;;;58.33;47.00;;;;;;;;5043030;28;45352;-66
2022/06/05 04:02:14;;;;;;;;;49.67;41.33;;;;;;;;5046051;28;45392;-67
2022/06/05 04:04:39;;;;;;;;;54.00;43.33;;;;;;;;5057103;28;45506;-67
2022/06/05 04:07:06;;;;;;;;;51.00;40.67;;;;;;;;5042367;28;45349;-67
2022/06/05 04:09:32;;;;;;;;;54.33;41.67;;;;;;;;5055372;28;45246;-67
2022/06/05 04:11:57;;;;;;;;;47.00;40.00;;;;;;;;5038707;28;45448;-67
2022/06/05 04:14:22;;;;;;;;;48.33;39.67;;;;;;;;5038904;28;45460;-67
2022/06/05 04:16:47;;;;;;;;;46.33;38.67;;;;;;;;5038472;28;46579;-67
2022/06/05 04:19:13;;;;;;;;;50.33;42.33;;;;;;;;5038479;28;45434;-67
2022/06/05 04:21:40;;;;;;;;;49.00;41.33;;;;;;;;5048680;28;45427;-67
2022/06/05 04:24:05;;;;;;;;;48.67;41.33;;;;;;;;5058596;28;45452;-67
2022/06/05 04:26:32;;;;;;;;;48.00;39.00;;;;;;;;5044511;28;46387;-67
2022/06/05 04:28:58;;;;;;;;;48.00;40.67;;;;;;;;5038328;28;45409;-67
2022/06/05 04:31:24;;;;;;;;;51.00;41.33;;;;;;;;5051704;28;45471;-67
2022/06/05 04:33:51;;;;;;;;;49.00;40.33;;;;;;;;5057692;28;45305;-67
2022/06/05 04:36:17;;;;;;;;;48.00;40.67;;;;;;;;5042370;28;46165;-67
2022/06/05 04:38:42;;;;;;;;;52.33;41.33;;;;;;;;5047729;28;45305;-67
2022/06/05 04:41:08;;;;;;;;;51.67;40.67;;;;;;;;5040919;28;46074;-67
2022/06/05 04:43:33;;;;;;;;;51.67;42.00;;;;;;;;5057601;28;45462;-67
2022/06/05 04:45:59;;;;;;;;;46.00;38.33;;;;;;;;5052555;28;45729;-68
2022/06/05 04:48:24;;;;;;;;;53.00;44.00;;;;;;;;5038170;28;45364;-67
2022/06/05 04:50:49;;;;;;;;;56.00;43.67;;;;;;;;5038376;28;45416;-67
2022/06/05 04:53:14;;;;;;;;;53.00;41.33;;;;;;;;5039453;28;45475;-67
2022/06/05 04:55:40;;;;;;;;;51.67;40.67;;;;;;;;5040650;28;47022;-67
2022/06/05 04:58:05;;;;;;;;;52.33;41.67;;;;;;;;5050938;28;45247;-67
2022/06/05 05:00:30;;;;;;;;;48.00;41.00;;;;;;;;5037874;28;45365;-67
2022/06/05 05:02:56;;;;;;;;;51.67;38.67;;;;;;;;5044650;28;46623;-67
2022/06/05 05:05:21;;;;;;;;;57.00;42.67;;;;;;;;5037895;28;46458;-68
2022/06/05 05:07:46;;;;;;;;;49.00;39.67;;;;;;;;5053474;28;45400;-67
2022/06/05 05:10:12;;;;;;;;;48.33;38.33;;;;;;;;5043919;28;45453;-67
2022/06/05 05:12:37;;;;;;;;;53.00;42.00;;;;;;;;5055542;28;45281;-68
2022/06/05 05:15:02;;;;;;;;;48.67;39.33;;;;;;;;5037370;28;47200;-67
2022/06/05 05:17:28;;;;;;;;;47.00;37.67;;;;;;;;5038722;28;45750;-67
2022/06/05 05:19:55;;;;;;;;;52.00;43.33;;;;;;;;5043507;28;45421;-67
2022/06/05 05:22:20;;;;;;;;;53.00;41.33;;;;;;;;5052235;28;45438;-67
2022/06/05 05:24:46;;;;;;;;;46.67;40.00;;;;;;;;5056966;28;46421;-67
2022/06/05 05:27:11;;;;;;;;;49.00;40.67;;;;;;;;5044278;28;45361;-67
2022/06/05 05:29:38;;;;;;;;;52.00;41.00;;;;;;;;5037100;28;45321;-67
2022/06/05 05:32:03;;;;;;;;;50.67;39.33;;;;;;;;5037713;28;45468;-67
2022/06/05 05:34:28;;;;;;;;;46.33;37.67;;;;;;;;5041249;28;45731;-67
2022/06/05 05:36:54;;;;;;;;;50.33;40.00;;;;;;;;5037568;28;45312;-67
2022/06/05 05:42:06;;;;;;;;;51.33;42.33;;;;;;;;5055791;28;45450;-67
2022/06/05 05:44:32;;;;;;;;;47.00;38.00;;;;;;;;5041823;28;46186;-67
2022/06/05 05:46:58;;;;;;;;;51.67;41.00;;;;;;;;5036088;28;45325;-67
2022/06/05 05:49:23;;;;;;;;;52.33;40.00;;;;;;;;5037586;28;45302;-67
2022/06/05 05:51:48;;;;;;;;;52.00;38.33;;;;;;;;5023308;28;45591;-65
2022/06/05 05:54:13;;;;;;;;;48.33;38.67;;;;;;;;5037067;28;45350;-64
2022/06/05 05:56:39;;;;;;;;;48.00;41.33;;;;;;;;5045342;28;45352;-67
2022/06/05 05:59:05;;;;;;;;;51.67;41.67;;;;;;;;5053997;28;45495;-64
2022/06/05 06:01:30;;;;;;;;;46.33;40.00;;;;;;;;5040810;28;45199;-65
2022/06/05 06:03:55;;;;;;;;;46.67;38.67;;;;;;;;5035765;28;46428;-64
2022/06/05 06:06:28;;;;;;;;;46.33;37.67;;;;;;;;5035754;28;45164;-64
2022/06/05 06:08:53;;;;;;;;;43.00;37.67;;;;;;;;5037447;28;45270;-64
2022/06/05 06:11:19;;;;;;;;;50.33;38.67;;;;;;;;5036812;28;45424;-65
2022/06/05 06:13:44;;;;;;;;;44.00;36.67;;;;;;;;5035701;28;46344;-65
2022/06/05 06:16:09;;;;;;;;;52.33;41.67;;;;;;;;5037059;28;45369;-67
2022/06/05 06:18:34;;;;;;;;;48.00;39.33;;;;;;;;5044160;28;45406;-64
2022/06/05 06:21:00;;;;;;;;;50.00;37.33;;;;;;;;5044844;28;45580;-65
2022/06/05 06:23:25;;;;;;;;;47.00;37.33;;;;;;;;5041175;28;46165;-65
2022/06/05 06:25:50;;;;;;;;;46.00;37.00;;;;;;;;5036577;28;45189;-66
2022/06/05 06:28:15;;;;;;;;;45.00;37.67;;;;;;;;5051784;28;45273;-65
2022/06/05 06:30:41;;;;;;;;;47.67;38.67;;;;;;;;5037111;28;45512;-65
2022/06/05 06:33:06;;;;;;;;;47.33;38.67;;;;;;;;5044681;28;46050;-66
2022/06/05 06:35:34;;;;;;;;;47.33;36.00;;;;;;;;5036181;28;45286;-65
2022/06/05 06:37:59;;;;;;;;;46.67;38.33;;;;;;;;5036705;28;45499;-66
2022/06/05 06:40:25;;;;;;;;;45.67;38.33;;;;;;;;5055369;28;45305;-66
2022/06/05 06:42:50;;;;;;;;;44.33;35.33;;;;;;;;5059038;28;45508;-66
2022/06/05 06:45:16;;;;;;;;;39.00;34.00;;;;;;;;5051657;28;45461;-66
2022/06/05 06:47:41;;;;;;;;;47.33;37.33;;;;;;;;5039546;28;45377;-67
2022/06/05 06:50:06;;;;;;;;;35.67;32.00;;;;;;;;5045854;28;45582;-67
2022/06/05 06:52:32;;;;;;;;;39.33;34.67;;;;;;;;5059216;28;45921;-66
2022/06/05 06:54:57;;;;;;;;;44.33;35.67;;;;;;;;5053908;28;45446;-67
2022/06/05 06:57:22;;;;;;;;;42.67;36.00;;;;;;;;5057053;28;45495;-66
2022/06/05 06:59:47;;;;;;;;;37.33;33.33;;;;;;;;5051541;28;45441;-66
2022/06/05 07:02:13;;;;;;;;;39.67;35.33;;;;;;;;5040968;28;46446;-66
2022/06/05 07:04:38;;;;;;;;;49.33;39.33;;;;;;;;5053856;28;45436;-66
2022/06/05 07:07:03;;;;;;;;;41.33;35.00;;;;;;;;5040327;28;45276;-66
2022/06/05 07:09:29;;;;;;;;;79.25;68.00;;;;;;;;5046360;28;45496;-66
2022/06/05 07:11:54;;;;;;;;;46.67;38.67;;;;;;;;5048849;28;46341;-67
2022/06/05 07:14:20;;;;;;;;;46.00;38.67;;;;;;;;5054759;28;45183;-66
2022/06/05 07:16:45;;;;;;;;;43.67;35.67;;;;;;;;5048383;28;45238;-67
2022/06/05 07:19:10;;;;;;;;;45.67;38.00;;;;;;;;5040679;28;45408;-66
2022/06/05 07:21:36;;;;;;;;;43.33;35.00;;;;;;;;5043381;28;46405;-67
2022/06/05 07:24:01;;;;;;;;;48.33;35.67;;;;;;;;5058073;28;45506;-66
2022/06/05 07:26:28;;;;;;;;;39.67;34.67;;;;;;;;5059004;28;45823;-66
2022/06/05 07:28:56;;;;;;;;;50.00;38.67;;;;;;;;5059442;28;45360;-67
2022/06/05 07:31:21;;;;;;;;;47.33;38.33;;;;;;;;5057499;28;46040;-67
2022/06/05 07:33:46;;;;;;;;;42.00;36.00;;;;;;;;5040547;28;45407;-66
2022/06/05 07:36:13;;;;;;;;;46.67;38.33;;;;;;;;5052974;28;45436;-67
2022/06/05 07:38:39;;;;;;;;;44.00;35.33;;;;;;;;5048534;28;45392;-66
2022/06/05 07:41:05;;;;;;;;;42.67;36.67;;;;;;;;5042003;28;46306;-66
2022/06/05 07:43:30;;;;;;;;;34.33;32.33;;;;;;;;5021783;28;45833;-66
2022/06/05 07:45:57;;;;;;;;;45.67;38.67;;;;;;;;5044427;28;45463;-67
2022/06/05 07:48:22;;;;;;;;;46.00;37.67;;;;;;;;5040898;28;45643;-67
2022/06/05 07:56:15;;;;;;;;;40.67;34.00;;;;;;;;5048689;28;46544;-66
2022/06/05 07:58:41;;;;;;;;;39.33;33.67;;;;;;;;5054710;28;45427;-67
2022/06/05 08:01:07;;;;;;;;;35.33;32.00;;;;;;;;5043358;28;47213;-66
2022/06/05 08:03:33;;;;;;;;;42.67;33.67;;;;;;;;5046501;28;45381;-66
2022/06/05 08:05:58;;;;;;;;;37.33;33.67;;;;;;;;5046853;28;45499;-66
2022/06/05 08:08:23;;;;;;;;;35.33;32.67;;;;;;;;5050484;28;45595;-66
2022/06/05 08:10:48;;;;;;;;;31.67;30.33;;;;;;;;5056860;28;46342;-66
2022/06/05 08:13:13;;;;;;;;;37.00;33.67;;;;;;;;5052486;28;45393;-66
2022/06/05 08:15:42;;;;;;;;;32.67;31.67;;;;;;;;5038362;28;45747;-66
2022/06/05 08:18:08;;;;;;;;;39.00;33.67;;;;;;;;5038161;28;45635;-66
2022/06/05 08:20:33;;;;;;;;;32.00;31.33;;;;;;;;5038213;28;47475;-66
2022/06/05 08:22:58;;;;;;;;;35.67;31.67;;;;;;;;5041803;28;45308;-66
2022/06/05 08:25:24;;;;;;;;;37.00;33.67;;;;;;;;5038419;28;45280;-66
2022/06/05 08:27:50;;;;;;;;;36.33;33.67;;;;;;;;5038221;28;45493;-66
2022/06/05 08:30:15;;;;;;;;;42.67;36.00;;;;;;;;5037057;28;45548;-66
2022/06/05 08:32:41;;;;;;;;;36.00;30.67;;;;;;;;5037875;28;45425;-65
2022/06/05 08:35:07;;;;;;;;;31.67;29.00;;;;;;;;5038230;28;45577;-65
2022/06/05 08:43:20;;;;;;;;;33.67;31.33;;;;;;;;5055988;28;45749;-66
2022/06/05 08:45:51;;;;;;;;;32.00;30.67;;;;;;;;5056793;28;45448;-66
2022/06/05 08:48:36;;;;;;;;;29.67;28.67;;;;;;;;5053760;28;45338;-66
2022/06/05 08:51:20;;;;;;;;;36.00;30.33;;;;;;;;5039747;28;46210;-66
2022/06/05 08:53:48;;;;;;;;;31.33;29.00;;;;;;;;5055901;28;45428;-66
2022/06/05 08:56:18;;;;;;;;;36.00;32.67;;;;;;;;5057599;28;45236;-67
2022/06/05 08:58:50;;;;;;;;;31.67;28.00;;;;;;;;5047251;28;45532;-66
2022/06/05 09:01:21;;;;;;;;;33.00;29.67;;;;;;;;5055496;28;46232;-66
2022/06/05 09:04:02;;;;;;;;;33.00;30.00;;;;;;;;5036728;28;45317;-67
2022/06/05 09:06:39;;;;;;;;;32.33;30.00;;;;;;;;5036879;28;45690;-67
2022/06/05 09:09:10;;;;;;;;;33.00;31.67;;;;;;;;5037849;28;45309;-67
2022/06/05 09:11:35;;;;;;;;;28.67;28.00;;;;;;;;5037161;28;45732;-67
2022/06/05 09:14:00;;;;;;;;;40.33;30.00;;;;;;;;5049936;28;45333;-68
2022/06/05 09:16:28;;;;;;;;;41.67;33.67;;;;;;;;5037255;28;45511;-67
2022/06/05 09:18:54;;;;;;;;;30.33;30.00;;;;;;;;5037798;28;45392;-66
2022/06/05 09:21:31;;;;;;;;;35.33;32.33;;;;;;;;5046545;28;46124;-67
2022/06/05 09:24:08;;;;;;;;;30.33;29.67;;;;;;;;5046805;28;45511;-71
2022/06/05 09:26:36;;;;;;;;;40.33;33.67;;;;;;;;5051839;28;45470;-70
2022/06/05 09:29:10;;;;;;;;;35.00;33.33;;;;;;;;5037364;28;45339;-69
2022/06/05 09:31:56;;;;;;;;;39.67;34.33;;;;;;;;5036849;28;46597;-68
2022/06/05 09:34:25;;;;;;;;;42.33;33.00;;;;;;;;5036758;28;45381;-67
2022/06/05 09:37:13;;;;;;;;;41.00;36.00;;;;;;;;5052589;28;45555;-69
2022/06/05 09:39:45;;;;;;;;;46.00;38.00;;;;;;;;5048659;28;45369;-68
2022/06/05 09:42:29;;;;;;;;;44.33;36.33;;;;;;;;5048005;28;46213;-68
2022/06/05 09:45:30;;;;;;;;;47.67;37.33;;;;;;;;5046445;28;45555;-71
2022/06/05 09:47:55;;;;;;;;;56.67;43.67;;;;;;;;4989776;28;45570;-67
2022/06/05 09:50:25;;;;;;;;;53.00;43.00;;;;;;;;5003140;28;45390;-68
2022/06/05 09:52:50;;;;;;;;;53.67;42.67;;;;;;;;5014677;28;46370;-67
2022/06/05 09:55:30;;;;;;;;;57.33;45.00;;;;;;;;4997085;28;45529;-65
2022/06/05 09:58:27;;;;;;;;;55.00;45.00;;;;;;;;5001507;28;45228;-68
2022/06/05 10:00:56;;;;;;;;;55.00;44.00;;;;;;;;5009510;28;45465;-67
2022/06/05 10:03:24;;;;;;;;;48.67;42.33;;;;;;;;4997858;28;45497;-70
2022/06/05 10:06:10;;;;;;;;;58.67;46.33;;;;;;;;4994354;28;45684;-68
2022/06/05 10:08:41;;;;;;;;;59.00;46.00;;;;;;;;4994696;28;45340;-69
2022/06/05 10:11:17;;;;;;;;;56.33;44.33;;;;;;;;4994486;28;45494;-70
2022/06/05 10:13:46;;;;;;;;;53.00;43.00;;;;;;;;4994693;28;45744;-66
2022/06/05 10:16:17;;;;;;;;;57.67;47.67;;;;;;;;4996709;28;45841;-66
2022/06/05 10:18:51;;;;;;;;;54.67;45.00;;;;;;;;4996162;28;45484;-65
2022/06/05 10:21:20;;;;;;;;;54.00;45.00;;;;;;;;5004233;28;45594;-66
2022/06/05 10:24:18;;;;;;;;;58.67;46.00;;;;;;;;5048608;28;47535;-65
2022/06/05 10:26:47;;;;;;;;;57.00;45.00;;;;;;;;5032353;28;45484;-66
2022/06/05 10:29:31;;;;;;;;;60.00;44.33;;;;;;;;5037971;28;45350;-65
2022/06/05 10:32:10;;;;;;;;;56.67;45.67;;;;;;;;5037226;28;45511;-66
2022/06/05 10:34:41;;;;;;;;;56.33;44.00;;;;;;;;5037917;28;46287;-67
2022/06/05 10:37:17;;;;;;;;;55.67;42.33;;;;;;;;5037858;28;45378;-66
2022/06/05 10:39:55;;;;;;;;;60.50;48.75;;;;;;;;5038081;28;45298;-68
2022/06/05 10:42:20;;;;;;;;;53.25;45.00;;;;;;;;5036643;28;45261;-67
2022/06/05 10:44:58;;;;;;;;;64.00;49.25;;;;;;;;5037421;28;45361;-67
2022/06/05 10:47:42;;;;;;;;;60.67;48.00;;;;;;;;5037417;28;45430;-66
2022/06/05 10:50:07;;;;;;;;;54.33;44.33;;;;;;;;5037694;28;45444;-67
2022/06/05 10:52:39;;;;;;;;;59.67;46.00;;;;;;;;5035260;28;45453;-67
2022/06/05 10:55:20;;;;;;;;;57.25;44.00;;;;;;;;5057312;28;45470;-67
2022/06/05 10:58:06;;;;;;;;;50.67;42.00;;;;;;;;5057464;28;45607;-67
2022/06/05 11:00:49;;;;;;;;;53.33;42.00;;;;;;;;4996584;28;45497;-67
2022/06/05 11:03:22;;;;;;;;;61.00;48.50;;;;;;;;4980205;28;45470;-66
2022/06/05 11:05:55;;;;;;;;;61.00;48.25;;;;;;;;4978052;28;45481;-67
2022/06/05 11:08:28;;;;;;;;;65.33;49.00;;;;;;;;4977499;28;45507;-67
2022/06/05 11:14:04;;;;;;;;;51.33;41.67;;;;;;;;4991456;28;45480;-67
2022/06/05 11:16:29;;;;;;;;;49.67;40.33;;;;;;;;4977980;28;46293;-67
2022/06/05 11:18:57;;;;;;;;;49.67;39.67;;;;;;;;4977473;28;45736;-67
2022/06/05 11:21:23;;;;;;;;;46.67;38.00;;;;;;;;4977961;28;45427;-67
2022/06/05 11:23:51;;;;;;;;;48.33;38.00;;;;;;;;4977978;28;45402;-67
2022/06/05 11:26:31;;;;;;;;;52.67;44.33;;;;;;;;4977367;28;46024;-67
2022/06/05 11:28:56;;;;;;;;;48.67;40.00;;;;;;;;4978171;28;45383;-67
2022/06/05 11:31:27;;;;;;;;;51.00;41.00;;;;;;;;4996962;28;45345;-67
2022/06/05 11:33:55;;;;;;;;;51.67;40.67;;;;;;;;4997140;28;45474;-67
2022/06/05 11:36:26;;;;;;;;;54.00;42.67;;;;;;;;4988287;28;46101;-67
2022/06/05 11:39:18;;;;;;;;;51.67;40.67;;;;;;;;5039161;28;45373;-67
2022/06/05 11:41:58;;;;;;;;;56.33;42.67;;;;;;;;4997098;28;45444;-67
2022/06/05 11:44:29;;;;;;;;;52.00;42.67;;;;;;;;4997327;28;45362;-67
2022/06/05 11:46:58;;;;;;;;;49.67;41.00;;;;;;;;4980458;28;48515;-67
2022/06/05 11:49:32;;;;;;;;;53.67;43.33;;;;;;;;4996844;28;45396;-67
2022/06/05 11:52:05;;;;;;;;;50.33;42.33;;;;;;;;4995698;28;45521;-70
2022/06/05 11:54:39;;;;;;;;;52.33;40.33;;;;;;;;4996512;28;45448;-70
2022/06/05 11:57:06;;;;;;;;;49.67;40.00;;;;;;;;4996392;28;45697;-66
2022/06/05 11:59:41;;;;;;;;;54.25;45.00;;;;;;;;4996795;28;45367;-66
2022/06/05 12:02:09;;;;;;;;;59.00;47.67;;;;;;;;4996846;28;45502;-65
2022/06/05 12:04:45;;;;;;;;;50.00;40.67;;;;;;;;4996185;28;45491;-64
2022/06/05 12:07:13;;;;;;;;;91.00;84.50;;;;;;;;4996139;28;46557;-66
2022/06/05 12:09:45;;;;;;;;;78.25;68.25;;;;;;;;4977186;28;45347;-66
2022/06/05 12:12:16;;;;;;;;;58.00;43.75;;;;;;;;4977463;28;45768;-65
2022/06/05 12:14:51;;;;;;;;;53.67;42.33;;;;;;;;4992446;28;45332;-71
2022/06/05 12:17:16;;;;;;;;;64.50;51.75;;;;;;;;4996067;28;45996;-64
2022/06/05 12:19:56;;;;;;;;;52.67;42.33;;;;;;;;5017593;28;45316;-66
2022/06/05 12:22:22;;;;;;;;;60.75;48.50;;;;;;;;5035190;28;45445;-66
2022/06/05 12:25:06;;;;;;;;;58.75;48.50;;;;;;;;5038836;28;45427;-65
2022/06/05 12:27:49;;;;;;;;;55.67;45.67;;;;;;;;5018502;28;46230;-67
2022/06/05 12:30:18;;;;;;;;;58.33;44.67;;;;;;;;5018729;28;45329;-66
2022/06/05 12:32:53;;;;;;;;;57.00;46.33;;;;;;;;5044553;28;45509;-66
2022/06/05 12:35:20;;;;;;;;;69.50;54.25;;;;;;;;5047718;28;46786;-64
2022/06/05 12:37:51;;;;;;;;;149.00;139.33;;;;;;;;5039926;28;46372;-64
2022/06/05 12:40:31;;;;;;;;;67.50;54.75;;;;;;;;5037519;28;45301;-65
2022/06/05 12:43:17;;;;;;;;;51.33;41.00;;;;;;;;5018508;28;45338;-65
2022/06/05 12:45:44;;;;;;;;;58.33;47.67;;;;;;;;4957246;28;45465;-66
2022/06/05 12:48:09;;;;;;;;;56.00;45.00;;;;;;;;4955706;28;45570;-65
2022/06/05 12:50:45;;;;;;;;;56.67;46.33;;;;;;;;4957047;28;45569;-67
2022/06/05 12:53:17;;;;;;;;;63.25;51.75;;;;;;;;4963405;28;45503;-66
2022/06/05 12:55:48;;;;;;;;;65.75;51.00;;;;;;;;4973153;28;45567;-64
2022/06/05 12:58:13;;;;;;;;;72.50;55.50;;;;;;;;4957008;28;45605;-66
2022/06/05 13:00:47;;;;;;;;;60.33;44.33;;;;;;;;4956698;28;45358;-64
2022/06/05 13:03:19;;;;;;;;;56.00;44.67;;;;;;;;4975682;28;45527;-65
2022/06/05 13:06:07;;;;;;;;;64.00;50.50;;;;;;;;4976712;28;45472;-66
2022/06/05 13:08:48;;;;;;;;;56.00;45.00;;;;;;;;4975353;28;46358;-65
2022/06/05 13:11:13;;;;;;;;;59.67;46.33;;;;;;;;4975514;28;45454;-67
2022/06/05 13:13:58;;;;;;;;;59.00;45.67;;;;;;;;4976010;28;45316;-67
2022/06/05 13:16:40;;;;;;;;;66.75;51.75;;;;;;;;4901301;28;45496;-67
2022/06/05 13:19:26;;;;;;;;;65.00;50.50;;;;;;;;4906716;28;46648;-67
2022/06/05 13:22:09;;;;;;;;;63.50;48.75;;;;;;;;4903778;28;45291;-67
2022/06/05 13:24:58;;;;;;;;;59.00;45.00;;;;;;;;4956458;28;45583;-67
2022/06/05 13:27:35;;;;;;;;;60.67;46.33;;;;;;;;4969299;28;45566;-66
2022/06/05 13:30:00;;;;;;;;;57.00;44.33;;;;;;;;4975849;28;47261;-65
2022/06/05 13:32:31;;;;;;;;;62.00;48.25;;;;;;;;4953515;28;45442;-67
2022/06/05 13:35:02;;;;;;;;;61.50;48.25;;;;;;;;4953181;28;45437;-67
2022/06/05 13:37:30;;;;;;;;;58.50;45.25;;;;;;;;4974220;28;45430;-67
2022/06/05 13:40:03;;;;;;;;;52.25;40.75;;;;;;;;4957523;28;46071;-67
2022/06/05 13:42:32;;;;;;;;;55.67;44.00;;;;;;;;4954416;28;45487;-65
2022/06/05 13:44:58;;;;;;;;;60.50;47.75;;;;;;;;4955112;28;45691;-67
2022/06/05 13:47:30;;;;;;;;;54.67;44.33;;;;;;;;4954522;28;45596;-66
2022/06/05 13:49:58;;;;;;;;;61.67;46.33;;;;;;;;4953682;28;46847;-67
2022/06/05 13:52:37;;;;;;;;;62.00;47.25;;;;;;;;4959348;28;45442;-67
2022/06/05 13:55:21;;;;;;;;;56.67;46.33;;;;;;;;5036969;28;45384;-67
2022/06/05 13:57:56;;;;;;;;;58.67;45.67;;;;;;;;5035232;28;45539;-67
2022/06/05 14:00:28;;;;;;;;;57.67;46.67;;;;;;;;5037382;28;45364;-67
2022/06/05 14:03:07;;;;;;;;;54.67;43.67;;;;;;;;5033053;28;45439;-66
2022/06/05 14:05:35;;;;;;;;;58.67;46.33;;;;;;;;5034606;28;45523;-66
2022/06/05 14:08:06;;;;;;;;;60.33;47.00;;;;;;;;5036066;28;45482;-66
2022/06/05 14:10:48;;;;;;;;;58.50;46.50;;;;;;;;5034838;28;45577;-66
2022/06/05 14:13:14;;;;;;;;;57.00;46.00;;;;;;;;5033929;28;45500;-67
2022/06/05 14:15:49;;;;;;;;;59.67;45.67;;;;;;;;5031405;28;46378;-65
2022/06/05 14:18:32;;;;;;;;;55.50;43.50;;;;;;;;5028853;28;45780;-67
2022/06/05 14:20:59;;;;;;;;;49.33;40.00;;;;;;;;5031693;28;45911;-66
2022/06/05 14:23:25;;;;;;;;;90.75;87.00;;;;;;;;5035300;28;45416;-66
2022/06/05 14:25:55;;;;;;;;;69.00;55.00;;;;;;;;5035035;28;45419;-65
2022/06/05 14:28:23;;;;;;;;;69.50;54.25;;;;;;;;5035340;28;45519;-65
2022/06/05 14:30:57;;;;;;;;;66.25;52.50;;;;;;;;5036308;28;47529;-66
2022/06/05 14:33:35;;;;;;;;;62.50;46.25;;;;;;;;5036427;28;45325;-66
2022/06/05 14:36:03;;;;;;;;;39.33;33.67;;;;;;;;5036818;28;45479;-65
2022/06/05 14:38:48;;;;;;;;;37.00;31.67;;;;;;;;5043238;28;45429;-65
2022/06/05 14:41:13;;;;;;;;;79.75;62.75;;;;;;;;5056459;28;45698;-65
2022/06/05 14:43:47;;;;;;;;;75.25;59.75;;;;;;;;5056838;28;45505;-66
2022/06/05 14:46:30;;;;;;;;;51.00;37.67;;;;;;;;5036294;28;45300;-65
2022/06/05 14:49:01;;;;;;;;;53.00;43.00;;;;;;;;5036381;28;45318;-66
2022/06/05 14:51:34;;;;;;;;;62.00;47.00;;;;;;;;5035716;28;45493;-66
2022/06/05 14:54:07;;;;;;;;;64.00;48.75;;;;;;;;5035958;28;45385;-66
2022/06/05 14:59:48;;;;;;;;;58.50;46.00;;;;;;;;5056429;28;45285;-66